Time;durP1;ratioP1;P1;durP2;ratioP2;P2;SDS_P1;SDS_P2;PMS_P1;PMS_P2;Temp;Humidity;BMP_temperature;BMP_pressure;BME280_temperature;BME280_humidity;BME280_pressure;Samples;Min_cycle;Max_cycle;Signal;HPM_P1;HPM_P2
2023/07/13 00:00:48;;;;;;;;;;;;;;;16.15;73.30;100822.23;108331;1262;124836;-89
2023/07/13 00:03:35;;;;;;;;;;;;;;;16.12;73.34;100825.57;108554;1262;76731;-89
2023/07/13 00:06:02;;;;;;;;;;;;;;;16.10;73.40;100829.83;108394;1262;125156;-89
2023/07/13 00:08:32;;;;;;;;;;;;;;;16.08;73.47;100832.46;108533;1262;72718;-89
2023/07/13 00:11:00;;;;;;;;;;;;;;;16.07;73.61;100830.16;108499;1262;59986;-89
2023/07/13 00:13:27;;;;;;;;;;;;;;;16.05;73.60;100828.75;108405;1262;124784;-89
2023/07/13 00:15:55;;;;;;;;;;;;;;;16.04;73.69;100831.91;108558;1263;73899;-89
2023/07/13 00:18:22;;;;;;;;;;;;;;;16.02;73.82;100832.44;108422;1262;125000;-90
2023/07/13 00:20:49;;;;;;;;;;;;;;;15.99;73.91;100828.19;108518;1262;72515;-89
2023/07/13 00:23:17;;;;;;;;;;;;;;;15.97;73.99;100826.41;108318;1267;125204;-88
2023/07/13 00:25:44;;;;;;;;;;;;;;;15.94;74.00;100819.32;108610;1262;59284;-89
2023/07/13 00:28:12;;;;;;;;;;;;;;;15.92;74.07;100814.36;108482;1262;74772;-89
2023/07/13 00:30:39;;;;;;;;;;;;;;;15.90;74.16;100814.00;108605;1261;124794;-90
2023/07/13 00:33:07;;;;;;;;;;;;;;;15.87;74.22;100803.36;108563;1262;72463;-90
2023/07/13 00:35:35;;;;;;;;;;;;;;;15.85;74.34;100796.63;108502;1262;124946;-90
2023/07/13 00:38:02;;;;;;;;;;;;;;;15.84;74.31;100796.63;108578;1262;59949;-90
2023/07/13 00:40:29;;;;;;;;;;;;;;;15.82;74.36;100800.51;108585;1262;73388;-90
2023/07/13 00:42:57;;;;;;;;;;;;;;;15.81;74.43;100807.76;108419;1261;124815;-91
2023/07/13 00:45:24;;;;;;;;;;;;;;;15.79;74.41;100805.09;108556;1262;73567;-90
2023/07/13 00:47:51;;;;;;;;;;;;;;;15.76;74.50;100803.67;108398;1270;124955;-91
2023/07/13 00:50:19;;;;;;;;;;;;;;;15.73;74.58;100804.16;108553;1262;60039;-90
2023/07/13 00:52:48;;;;;;;;;;;;;;;15.69;74.53;100804.84;108561;1260;74826;-90
2023/07/13 00:55:14;;;;;;;;;;;;;;;15.66;74.58;100806.59;108467;1262;124693;-90
2023/07/13 00:57:42;;;;;;;;;;;;;;;15.64;74.77;100817.72;108461;1262;71241;-89
2023/07/13 01:00:09;;;;;;;;;;;;;;;15.61;74.76;100825.14;108466;1262;125065;-90
2023/07/13 01:02:37;;;;;;;;;;;;;;;15.59;74.92;100833.44;108637;1262;59330;-90
2023/07/13 01:05:11;;;;;;;;;;;;;;;15.56;74.97;100833.79;108491;1261;75039;-90
2023/07/13 01:07:38;;;;;;;;;;;;;;;15.53;75.05;100833.59;108519;1262;124716;-90
2023/07/13 01:10:05;;;;;;;;;;;;;;;15.52;75.23;100836.42;108589;1262;72797;-90
2023/07/13 01:12:32;;;;;;;;;;;;;;;15.53;75.33;100832.52;108392;1262;125392;-89
2023/07/13 01:15:00;;;;;;;;;;;;;;;15.54;75.30;100838.01;108653;1262;59063;-89
2023/07/13 01:17:27;;;;;;;;;;;;;;;15.53;75.32;100839.24;108399;1262;125507;-89
2023/07/13 01:19:54;;;;;;;;;;;;;;;15.54;75.27;100838.71;108454;1262;66169;-89
2023/07/13 01:22:25;;;;;;;;;;;;;;;15.53;75.18;100840.48;108616;1261;71863;-89
2023/07/13 01:24:53;;;;;;;;;;;;;;;15.54;75.36;100838.36;108432;1262;125216;-89
2023/07/13 01:27:23;;;;;;;;;;;;;;;15.52;75.32;100835.34;108420;1262;59563;-89
2023/07/13 01:29:51;;;;;;;;;;;;;;;15.51;75.34;100842.77;108599;1262;125816;-89
2023/07/13 01:32:22;;;;;;;;;;;;;;;15.50;75.32;100841.17;108557;1262;65926;-89
2023/07/13 01:34:54;;;;;;;;;;;;;;;15.49;75.33;100845.06;108481;1264;72757;-90
2023/07/13 01:37:21;;;;;;;;;;;;;;;15.50;75.37;100846.30;108345;1267;124995;-89
2023/07/13 01:39:47;;;;;;;;;;;;;;;15.49;75.44;100854.08;108628;1265;60112;-89
2023/07/13 01:42:14;;;;;;;;;;;;;;;15.47;75.37;100860.08;108342;1262;125033;-89
2023/07/13 01:44:41;;;;;;;;;;;;;;;15.45;75.35;100861.31;108515;1262;67089;-89
2023/07/13 01:47:08;;;;;;;;;;;;;;;15.44;75.34;100863.77;108476;1262;72773;-89
2023/07/13 01:49:35;;;;;;;;;;;;;;;15.43;75.45;100863.40;108398;1261;125309;-89
2023/07/13 01:52:02;;;;;;;;;;;;;;;15.43;75.44;100863.39;108500;1263;58972;-89
2023/07/13 01:54:29;;;;;;;;;;;;;;;15.43;75.39;100868.18;108516;1262;124984;-89
2023/07/13 01:56:56;;;;;;;;;;;;;;;15.42;75.45;100864.10;108542;1262;67420;-89
2023/07/13 01:59:23;;;;;;;;;;;;;;;15.43;75.53;100865.36;108420;1262;125242;-88
2023/07/13 02:01:50;;;;;;;;;;;;;;;15.44;75.56;100861.65;108527;1262;60074;-88
2023/07/13 02:04:17;;;;;;;;;;;;;;;15.45;75.70;100868.20;108459;1262;60482;-89
2023/07/13 02:06:44;;;;;;;;;;;;;;;15.48;75.74;100871.75;108519;1263;124813;-89
2023/07/13 02:09:11;;;;;;;;;;;;;;;15.50;75.73;100870.89;108443;1262;65792;-88
2023/07/13 02:11:38;;;;;;;;;;;;;;;15.52;75.79;100867.02;108508;1262;125481;-88
2023/07/13 02:14:04;;;;;;;;;;;;;;;15.56;75.93;100863.14;108572;1264;58906;-89
2023/07/13 02:16:31;;;;;;;;;;;;;;;15.61;75.90;100862.99;108423;1264;59974;-89
2023/07/13 02:19:00;;;;;;;;;;;;;;;15.65;75.92;100867.26;108477;1262;124917;-89
2023/07/13 02:21:27;;;;;;;;;;;;;;;15.69;75.96;100870.12;108506;1262;66187;-88
2023/07/13 02:23:54;;;;;;;;;;;;;;;15.72;75.85;100872.27;108391;1264;125538;-89
2023/07/13 02:26:21;;;;;;;;;;;;;;;15.76;75.87;100874.97;108414;1261;59502;-89
2023/07/13 02:28:48;;;;;;;;;;;;;;;15.81;75.85;100874.48;108443;1262;59282;-89
2023/07/13 02:31:15;;;;;;;;;;;;;;;15.84;75.80;100867.23;108418;1262;125789;-89
2023/07/13 02:33:43;;;;;;;;;;;;;;;15.88;75.83;100867.44;108431;1264;67079;-89
2023/07/13 02:36:10;;;;;;;;;;;;;;;15.91;75.87;100866.03;108357;1264;127252;-89
2023/07/13 02:38:37;;;;;;;;;;;;;;;15.95;75.77;100865.16;108495;1265;59612;-88
2023/07/13 02:41:04;;;;;;;;;;;;;;;15.99;75.74;100867.48;108456;1270;60017;-89
2023/07/13 02:43:31;;;;;;;;;;;;;;;16.03;75.80;100869.98;108352;1265;125012;-88
2023/07/13 02:46:06;;;;;;;;;;;;;;;16.07;75.76;100868.93;108460;1263;65800;-88
2023/07/13 02:48:34;;;;;;;;;;;;;;;16.11;75.61;100867.89;108376;1265;125006;-88
2023/07/13 02:51:01;;;;;;;;;;;;;;;16.15;75.76;100870.02;108437;1265;59251;-88
2023/07/13 02:53:28;;;;;;;;;;;;;;;16.19;75.58;100869.88;108300;1264;125563;-89
2023/07/13 02:55:55;;;;;;;;;;;;;;;16.22;75.52;100868.29;108394;1264;74328;-88
2023/07/13 02:58:22;;;;;;;;;;;;;;;16.26;75.53;100865.64;108482;1264;66164;-88
2023/07/13 03:00:49;;;;;;;;;;;;;;;16.28;75.47;100867.24;108459;1263;125384;-89
2023/07/13 03:03:17;;;;;;;;;;;;;;;16.30;75.29;100864.41;108371;1263;58935;-88
2023/07/13 03:05:49;;;;;;;;;;;;;;;16.31;75.21;100857.70;108327;1264;125028;-89
2023/07/13 03:08:18;;;;;;;;;;;;;;;16.34;75.16;100855.94;108451;1265;74509;-88
2023/07/13 03:10:44;;;;;;;;;;;;;;;16.35;75.07;100849.91;108494;1262;65558;-89
2023/07/13 03:13:11;;;;;;;;;;;;;;;16.35;75.02;100848.14;108454;1264;124900;-89
2023/07/13 03:15:38;;;;;;;;;;;;;;;16.35;74.87;100846.36;108396;1265;59736;-88
2023/07/13 03:18:05;;;;;;;;;;;;;;;16.35;74.82;100847.60;108271;1264;124893;-88
2023/07/13 03:20:35;;;;;;;;;;;;;;;16.35;74.74;100851.15;108413;1263;72356;-89
2023/07/13 03:23:03;;;;;;;;;;;;;;;16.37;74.78;100856.11;108471;1262;65778;-89
2023/07/13 03:25:30;;;;;;;;;;;;;;;16.43;74.82;100857.73;108486;1262;124132;-89
2023/07/13 03:27:57;;;;;;;;;;;;;;;16.51;74.87;100860.05;108518;1265;59057;-88
2023/07/13 03:30:24;;;;;;;;;;;;;;;16.58;74.74;100865.20;108379;1264;124893;-88
2023/07/13 03:32:51;;;;;;;;;;;;;;;16.62;74.60;100862.20;108676;1262;74647;-89
2023/07/13 03:35:18;;;;;;;;;;;;;;;16.67;74.59;100865.75;108587;1263;124479;-89
2023/07/13 03:37:44;;;;;;;;;;;;;;;16.70;74.47;100863.10;108524;1262;72547;-89
2023/07/13 03:40:12;;;;;;;;;;;;;;;16.74;74.48;100865.40;108609;1262;59412;-89
2023/07/13 03:42:38;;;;;;;;;;;;;;;16.77;74.45;100863.47;108411;1262;124371;-88
2023/07/13 03:45:06;;;;;;;;;;;;;;;16.84;74.37;100862.44;108542;1263;73434;-89
2023/07/13 03:47:33;;;;;;;;;;;;;;;16.89;74.28;100864.92;108437;1264;124626;-87
2023/07/13 03:50:00;;;;;;;;;;;;;;;16.94;74.27;100858.73;108540;1262;72741;-88
2023/07/13 03:52:28;;;;;;;;;;;;;;;17.01;74.24;100857.31;108589;1262;59201;-89
2023/07/13 03:54:55;;;;;;;;;;;;;;;17.12;74.44;100861.92;108397;1267;124539;-89
2023/07/13 03:57:22;;;;;;;;;;;;;;;17.40;74.70;100862.61;108503;1262;73719;-89
2023/07/13 03:59:49;;;;;;;;;;;;;;;17.90;75.21;100862.33;108385;1262;125499;-89
2023/07/13 04:02:17;;;;;;;;;;;;;;;18.42;74.43;100862.13;108458;1262;72548;-89
2023/07/13 04:04:44;;;;;;;;;;;;;;;19.03;74.64;100860.48;108523;1261;59008;-89
2023/07/13 04:07:11;;;;;;;;;;;;;;;20.17;74.72;100860.75;108494;1260;126393;-90
2023/07/13 04:09:38;;;;;;;;;;;;;;;21.27;73.40;100862.70;108574;1262;73272;-89
2023/07/13 04:12:05;;;;;;;;;;;;;;;22.70;73.12;100862.15;108541;1263;124372;-91
2023/07/13 04:14:32;;;;;;;;;;;;;;;24.47;71.34;100866.58;108471;1262;71717;-91
2023/07/13 04:16:59;;;;;;;;;;;;;;;26.08;68.87;100868.71;108446;1262;59038;-88
2023/07/13 04:19:29;;;;;;;;;;;;;;;27.48;66.39;100871.05;108381;1264;125339;-91
2023/07/13 04:21:58;;;;;;;;;;;;;;;28.68;63.82;100874.96;108524;1262;73037;-89
2023/07/13 04:24:26;;;;;;;;;;;;;;;29.73;61.68;100873.45;108435;1262;125346;-90
2023/07/13 04:26:53;;;;;;;;;;;;;;;30.75;59.53;100872.27;108465;1267;62677;-90
2023/07/13 04:29:21;;;;;;;;;;;;;;;31.69;57.68;100874.16;108468;1262;124273;-91
2023/07/13 04:31:48;;;;;;;;;;;;;;;32.59;55.60;100877.63;108632;1260;59533;-90
2023/07/13 04:34:16;;;;;;;;;;;;;;;33.38;53.69;100882.90;108501;1263;65905;-88
2023/07/13 04:36:45;;;;;;;;;;;;;;;34.16;51.87;100882.75;108567;1265;124942;-95
2023/07/13 04:39:13;;;;;;;;;;;;;;;34.85;50.13;100871.55;108723;1262;64129;-88
2023/07/13 04:41:40;;;;;;;;;;;;;;;35.64;48.71;100872.02;108447;1262;124634;-88
2023/07/13 04:44:08;;;;;;;;;;;;;;;36.48;47.23;100871.40;108599;1261;59172;-89
2023/07/13 04:46:37;;;;;;;;;;;;;;;37.17;45.49;100873.12;108653;1260;65898;-88
2023/07/13 04:49:04;;;;;;;;;;;;;;;37.60;43.78;100875.37;108365;1262;124260;-90
2023/07/13 04:51:31;;;;;;;;;;;;;;;38.02;42.85;100875.85;108444;1262;63872;-89
2023/07/13 04:54:12;;;;;;;;;;;;;;;;;;;;;
2023/07/13 04:56:52;;;;;;;;;;;;;;;39.17;40.38;100874.79;108635;1262;58942;-89
2023/07/13 04:59:20;;;;;;;;;;;;;;;39.70;39.38;100878.77;108540;1264;124274;-90
2023/07/13 05:01:47;;;;;;;;;;;;;;;40.03;38.30;100876.86;108576;1263;60267;-91
2023/07/13 05:04:14;;;;;;;;;;;;;;;40.45;37.38;100882.54;108528;1262;64569;-87
2023/07/13 05:06:41;;;;;;;;;;;;;;;40.75;36.42;100881.21;108379;1262;124194;-87
2023/07/13 05:09:08;;;;;;;;;;;;;;;40.98;35.45;100882.20;108480;1262;59367;-88
2023/07/13 05:11:35;;;;;;;;;;;;;;;41.07;34.87;100889.17;108503;1266;124505;-89
2023/07/13 05:14:02;;;;;;;;;;;;;;;41.16;34.16;100891.88;108555;1262;59020;-89
2023/07/13 05:16:29;;;;;;;;;;;;;;;41.12;33.67;100891.83;108704;1262;64120;-88
2023/07/13 05:18:56;;;;;;;;;;;;;;;41.07;33.22;100888.06;108485;1263;124531;-88
2023/07/13 05:21:23;;;;;;;;;;;;;;;41.04;32.47;100888.71;108519;1265;58966;-88
2023/07/13 05:23:51;;;;;;;;;;;;;;;41.10;32.19;100887.81;108517;1266;124323;-88
2023/07/13 05:26:18;;;;;;;;;;;;;;;41.40;31.79;100889.53;108702;1262;58977;-88
2023/07/13 05:28:45;;;;;;;;;;;;;;;41.66;31.23;100894.04;108710;1261;63781;-89
2023/07/13 05:31:27;;;;;;;;;;;;;;;41.96;30.89;100899.67;108630;1262;124271;-89
2023/07/13 05:33:54;;;;;;;;;;;;;;;42.15;30.06;100904.17;108559;1262;59188;-89
2023/07/13 05:36:21;;;;;;;;;;;;;;;42.07;29.50;100909.20;108533;1264;124252;-89
2023/07/13 05:38:48;;;;;;;;;;;;;;;41.74;29.26;100906.73;108650;1261;59529;-89
2023/07/13 05:41:23;;;;;;;;;;;;;;;41.80;29.09;100904.14;108595;1263;62788;-89
2023/07/13 05:43:51;;;;;;;;;;;;;;;41.56;28.80;100907.52;108551;1264;59097;-89
2023/07/13 05:46:18;;;;;;;;;;;;;;;40.36;28.70;100909.04;108583;1261;59044;-90
2023/07/13 05:48:45;;;;;;;;;;;;;;;38.41;29.14;100913.69;108478;1267;124521;-88
2023/07/13 05:51:12;;;;;;;;;;;;;;;36.30;29.99;100912.98;108590;1267;59560;-88
2023/07/13 05:53:39;;;;;;;;;;;;;;;34.58;31.13;100918.86;108592;1264;124448;-88
2023/07/13 05:56:06;;;;;;;;;;;;;;;32.94;31.88;100920.90;108741;1260;59025;-88
2023/07/13 05:58:34;;;;;;;;;;;;;;;31.48;33.34;100920.73;108636;1262;59121;-88
2023/07/13 06:01:03;;;;;;;;;;;;;;;30.37;34.45;100926.33;108454;1264;124849;-87
2023/07/13 06:03:30;;;;;;;;;;;;;;;29.37;35.58;100928.89;108633;1263;59492;-87
2023/07/13 06:05:57;;;;;;;;;;;;;;;28.41;36.61;100929.67;108590;1263;124348;-88
2023/07/13 06:08:24;;;;;;;;;;;;;;;27.73;37.63;100934.90;108717;1262;59046;-87
2023/07/13 06:10:51;;;;;;;;;;;;;;;27.19;38.45;100935.33;108595;1267;58880;-87
2023/07/13 06:13:19;;;;;;;;;;;;;;;26.87;39.36;100937.54;108507;1260;124863;-89
2023/07/13 06:15:49;;;;;;;;;;;;;;;26.59;39.92;100944.90;108549;1264;67138;-88
2023/07/13 06:18:17;;;;;;;;;;;;;;;26.24;40.56;100948.55;108523;1267;124240;-88
2023/07/13 06:20:44;;;;;;;;;;;;;;;25.95;41.16;100948.52;108609;1262;59154;-88
2023/07/13 06:23:11;;;;;;;;;;;;;;;25.62;41.68;100950.38;108555;1264;59272;-87
2023/07/13 06:25:39;;;;;;;;;;;;;;;25.31;42.17;100956.45;108454;1264;124131;-87
2023/07/13 06:28:06;;;;;;;;;;;;;;;25.07;42.64;100955.21;108648;1264;65565;-87
2023/07/13 06:30:33;;;;;;;;;;;;;;;24.88;43.24;100957.25;108640;1260;124167;-88
2023/07/13 06:33:00;;;;;;;;;;;;;;;24.74;43.80;100956.79;108535;1264;59249;-88
2023/07/13 06:35:27;;;;;;;;;;;;;;;24.76;44.36;100956.90;108454;1264;124277;-87
2023/07/13 06:37:54;;;;;;;;;;;;;;;24.95;44.48;100954.70;108524;1262;73424;-88
2023/07/13 06:40:21;;;;;;;;;;;;;;;25.20;44.53;100955.52;108517;1264;66905;-90
2023/07/13 06:42:49;;;;;;;;;;;;;;;25.30;44.46;100963.13;108391;1268;124230;-87
2023/07/13 06:45:15;;;;;;;;;;;;;;;25.27;44.62;100962.86;108530;1264;59214;-87
2023/07/13 06:47:42;;;;;;;;;;;;;;;25.30;44.57;100961.50;108404;1262;124281;-87
2023/07/13 06:50:09;;;;;;;;;;;;;;;25.37;44.95;100964.16;108482;1264;74583;-87
2023/07/13 06:52:37;;;;;;;;;;;;;;;25.51;44.92;100959.54;108642;1264;65804;-88
2023/07/13 06:55:04;;;;;;;;;;;;;;;25.69;45.00;100963.98;108550;1264;124177;-88
2023/07/13 06:57:32;;;;;;;;;;;;;;;25.86;44.97;100966.08;108509;1263;59091;-90
2023/07/13 06:59:59;;;;;;;;;;;;;;;25.93;44.72;100967.84;108449;1262;124373;-90
2023/07/13 07:02:27;;;;;;;;;;;;;;;25.89;44.49;100968.67;108530;1262;74895;-90
2023/07/13 07:04:54;;;;;;;;;;;;;;;25.79;44.21;100971.16;108730;1263;65596;-90
2023/07/13 07:07:24;;;;;;;;;;;;;;;25.71;44.49;100970.56;108548;1262;124443;-91
2023/07/13 07:09:51;;;;;;;;;;;;;;;25.65;44.52;100967.88;108646;1264;59016;-91
2023/07/13 07:12:19;;;;;;;;;;;;;;;25.77;44.81;100966.73;108660;1264;124070;-91
2023/07/13 07:14:47;;;;;;;;;;;;;;;25.92;44.49;100965.51;108639;1264;73321;-91
2023/07/13 07:17:14;;;;;;;;;;;;;;;26.17;44.52;100962.85;108668;1262;66879;-91
2023/07/13 07:19:41;;;;;;;;;;;;;;;26.42;44.10;100968.04;108491;1264;124033;-90
2023/07/13 07:22:08;;;;;;;;;;;;;;;26.52;43.44;100965.66;108613;1264;58995;-90
2023/07/13 07:24:36;;;;;;;;;;;;;;;26.49;43.22;100967.04;108610;1262;124153;-90
2023/07/13 07:27:03;;;;;;;;;;;;;;;26.43;43.24;100967.64;108620;1264;73633;-91
2023/07/13 07:29:31;;;;;;;;;;;;;;;26.27;43.14;100967.16;108418;1264;124395;-90
2023/07/13 07:31:59;;;;;;;;;;;;;;;26.05;43.29;100965.96;108621;1264;72697;-91
2023/07/13 07:34:26;;;;;;;;;;;;;;;25.92;43.47;100969.83;108718;1262;58919;-90
2023/07/13 07:36:53;;;;;;;;;;;;;;;25.78;43.47;100969.77;108653;1262;124082;-91
2023/07/13 07:39:20;;;;;;;;;;;;;;;25.87;43.91;100966.77;108696;1264;74420;-88
2023/07/13 07:41:47;;;;;;;;;;;;;;;26.08;43.58;100964.06;108500;1264;124323;-89
2023/07/13 07:44:16;;;;;;;;;;;;;;;26.21;43.67;100965.95;108633;1262;72705;-90
2023/07/13 07:46:46;;;;;;;;;;;;;;;26.24;43.26;100971.60;108600;1262;59043;-89
2023/07/13 07:49:13;;;;;;;;;;;;;;;26.09;43.31;100975.90;108446;1267;124635;-90
2023/07/13 07:51:40;;;;;;;;;;;;;;;25.94;43.28;100981.45;108526;1267;76030;-90
2023/07/13 07:54:08;;;;;;;;;;;;;;;25.89;43.37;100989.35;108575;1262;124369;-90
2023/07/13 07:56:35;;;;;;;;;;;;;;;25.96;43.44;100989.30;108670;1263;72711;-90
2023/07/13 07:59:02;;;;;;;;;;;;;;;26.08;43.53;100989.77;108639;1262;59115;-90
2023/07/13 08:01:29;;;;;;;;;;;;;;;26.17;43.27;100991.06;108588;1263;124212;-90
2023/07/13 08:04:01;;;;;;;;;;;;;;;26.15;43.22;100992.04;108576;1262;75956;-91
2023/07/13 08:06:28;;;;;;;;;;;;;;;26.13;43.37;100998.21;108459;1263;124300;-90
2023/07/13 08:08:56;;;;;;;;;;;;;;;26.04;43.10;100999.46;108551;1264;72778;-90
2023/07/13 08:11:23;;;;;;;;;;;;;;;25.97;43.03;100999.36;108505;1262;124257;-91
2023/07/13 08:13:50;;;;;;;;;;;;;;;26.03;43.54;100993.73;108578;1262;60225;-90
2023/07/13 08:16:20;;;;;;;;;;;;;;;26.22;43.67;100993.97;108662;1264;73470;-90
2023/07/13 08:18:47;;;;;;;;;;;;;;;26.30;43.65;100991.67;108495;1262;124104;-91
2023/07/13 08:21:14;;;;;;;;;;;;;;;26.36;43.50;100990.02;108613;1262;72500;-90
2023/07/13 08:24:00;;;;;;;;;;;;;;;26.24;43.12;100997.85;108472;1262;124365;-91
2023/07/13 08:26:29;;;;;;;;;;;;;;;25.91;43.26;100997.57;108678;1262;59893;-91
2023/07/13 08:29:03;;;;;;;;;;;;;;;25.74;43.55;100993.45;108578;1264;73239;-92
2023/07/13 08:31:30;;;;;;;;;;;;;;;25.82;43.58;100997.14;108480;1262;124335;-90
2023/07/13 08:34:00;;;;;;;;;;;;;;;26.07;43.36;100997.91;108683;1263;70345;-91
2023/07/13 08:36:28;;;;;;;;;;;;;;;26.44;43.14;101000.87;108606;1261;124182;-91
2023/07/13 08:38:56;;;;;;;;;;;;;;;26.74;42.81;101006.80;108647;1260;59809;-91
2023/07/13 08:41:23;;;;;;;;;;;;;;;26.71;42.21;101006.20;108519;1261;124366;-91
2023/07/13 08:43:52;;;;;;;;;;;;;;;26.43;42.38;101004.16;108596;1262;66915;-91
2023/07/13 08:46:21;;;;;;;;;;;;;;;26.24;42.69;101005.75;108678;1260;72892;-91
2023/07/13 08:48:49;;;;;;;;;;;;;;;26.12;42.95;101007.08;108576;1260;124375;-91
2023/07/13 08:51:19;;;;;;;;;;;;;;;26.06;43.01;101005.89;108651;1264;60163;-92
2023/07/13 08:53:52;;;;;;;;;;;;;;;25.97;42.90;101006.71;108594;1260;124389;-92
2023/07/13 08:56:30;;;;;;;;;;;;;;;25.87;43.02;101001.82;108639;1260;65879;-90
2023/07/13 08:59:18;;;;;;;;;;;;;;;25.95;43.22;101001.20;108564;1260;73060;-92
2023/07/13 09:01:59;;;;;;;;;;;;;;;26.07;42.65;100997.55;108687;1260;59347;-91
2023/07/13 09:04:48;;;;;;;;;;;;;;;26.22;42.63;100996.82;108621;1262;59857;-92
2023/07/13 09:07:24;;;;;;;;;;;;;;;26.51;42.73;100992.54;108664;1260;124360;-91
2023/07/13 09:10:11;;;;;;;;;;;;;;;26.77;42.61;100989.42;108720;1260;65909;-91
2023/07/13 09:12:41;;;;;;;;;;;;;;;26.89;42.40;100982.09;108523;1261;124342;-88
2023/07/13 09:15:16;;;;;;;;;;;;;;;26.92;42.20;100979.65;108575;1262;59039;-89
2023/07/13 09:17:48;;;;;;;;;;;;;;;26.94;41.94;100979.40;108483;1262;125686;-89
2023/07/13 09:20:16;;;;;;;;;;;;;;;26.83;41.30;100986.67;108628;1261;74752;-89
2023/07/13 09:22:43;;;;;;;;;;;;;;;26.43;40.84;100984.21;108737;1264;64872;-90
2023/07/13 09:25:22;;;;;;;;;;;;;;;26.08;41.12;100979.15;108530;1260;124533;-89
2023/07/13 09:27:52;;;;;;;;;;;;;;;25.75;41.35;100979.42;108714;1262;59033;-92
2023/07/13 09:30:30;;;;;;;;;;;;;;;25.48;41.97;100979.25;108686;1261;124298;-91
2023/07/13 09:32:58;;;;;;;;;;;;;;;25.45;42.00;100976.84;108732;1262;74864;-91
2023/07/13 09:35:27;;;;;;;;;;;;;;;25.52;42.24;100965.80;108662;1262;65860;-89
2023/07/13 09:37:59;;;;;;;;;;;;;;;25.74;42.22;100967.04;108585;1262;72499;-88
2023/07/13 09:40:43;;;;;;;;;;;;;;;26.09;42.24;100968.70;108518;1262;59097;-90
2023/07/13 09:43:10;;;;;;;;;;;;;;;26.51;41.77;100964.84;108495;1262;124191;-87
2023/07/13 09:45:39;;;;;;;;;;;;;;;26.92;41.57;100959.84;108467;1264;74560;-87
2023/07/13 09:48:08;;;;;;;;;;;;;;;27.27;40.99;100960.60;108375;1262;124214;-89
2023/07/13 09:50:35;;;;;;;;;;;;;;;27.53;40.37;100959.35;108561;1261;70553;-91
2023/07/13 09:53:02;;;;;;;;;;;;;;;27.68;40.05;100959.26;108530;1261;58957;-90
2023/07/13 09:55:30;;;;;;;;;;;;;;;27.75;39.79;100964.91;108504;1262;124070;-90
2023/07/13 09:58:02;;;;;;;;;;;;;;;27.81;39.84;100963.39;108638;1262;73731;-89
2023/07/13 10:00:29;;;;;;;;;;;;;;;28.01;39.66;100966.15;108538;1262;124145;-90
2023/07/13 10:03:10;;;;;;;;;;;;;;;28.26;39.34;100963.42;108580;1263;72525;-90
2023/07/13 10:05:41;;;;;;;;;;;;;;;28.43;39.02;100965.15;108418;1263;124516;-91
2023/07/13 10:08:32;;;;;;;;;;;;;;;28.64;39.05;100964.94;108629;1262;60564;-90
2023/07/13 10:11:00;;;;;;;;;;;;;;;28.87;39.03;100967.81;108648;1262;66771;-90
2023/07/13 10:13:28;;;;;;;;;;;;;;;29.12;38.74;100971.86;108621;1262;124244;-91
2023/07/13 10:15:55;;;;;;;;;;;;;;;29.28;38.33;100969.69;108715;1262;64140;-92
2023/07/13 10:18:28;;;;;;;;;;;;;;;29.43;37.92;100975.20;108570;1262;124363;-92
2023/07/13 10:21:08;;;;;;;;;;;;;;;29.52;37.57;100976.73;108589;1262;58994;-91
2023/07/13 10:23:35;;;;;;;;;;;;;;;29.57;37.53;100973.98;108651;1262;124463;-92
2023/07/13 10:26:10;;;;;;;;;;;;;;;29.57;37.35;100978.33;108740;1262;59041;-91
2023/07/13 10:28:39;;;;;;;;;;;;;;;29.56;37.22;100982.73;108690;1262;72495;-90
2023/07/13 10:31:11;;;;;;;;;;;;;;;29.45;36.96;100983.77;108450;1262;123209;-90
2023/07/13 10:33:40;;;;;;;;;;;;;;;29.02;36.01;100981.36;108686;1262;59080;-90
2023/07/13 10:36:18;;;;;;;;;;;;;;;28.45;35.82;100978.23;108524;1262;124943;-91
2023/07/13 10:38:45;;;;;;;;;;;;;;;28.11;35.98;100979.43;108586;1264;65662;-91
2023/07/13 10:41:22;;;;;;;;;;;;;;;27.89;36.11;100978.04;108579;1262;72818;-90
2023/07/13 10:43:53;;;;;;;;;;;;;;;27.75;36.59;100983.29;108613;1262;123934;-91
2023/07/13 10:46:21;;;;;;;;;;;;;;;27.76;37.01;100983.59;108654;1262;60211;-90
2023/07/13 10:48:52;;;;;;;;;;;;;;;27.85;37.10;100993.34;108555;1262;124362;-91
2023/07/13 10:51:21;;;;;;;;;;;;;;;27.75;37.29;101003.33;108270;1262;388638;-91
2023/07/13 10:54:24;;;;;;;;;;;;;;;27.33;37.28;101013.52;108452;1262;124440;-89
2023/07/13 10:57:09;;;;;;;;;;;;;;;26.84;37.85;101023.18;108019;1270;59211;-90
2023/07/13 10:59:37;;;;;;;;;;;;;;;26.22;37.64;101031.55;107995;1270;124463;-91
2023/07/13 11:02:30;;;;;;;;;;;;;;;25.66;38.69;101027.68;107970;1270;73314;-90
2023/07/13 11:04:57;;;;;;;;;;;;;;;25.36;39.40;101024.53;108036;1270;66164;-90
2023/07/13 11:07:28;;;;;;;;;;;;;;;25.13;39.55;101022.02;107949;1270;124679;-91
2023/07/13 11:09:57;;;;;;;;;;;;;;;24.93;39.55;101028.19;107939;1270;58985;-92
2023/07/13 11:12:26;;;;;;;;;;;;;;;24.77;40.53;101024.00;107859;1270;124500;-92
2023/07/13 11:14:56;;;;;;;;;;;;;;;24.77;40.79;101022.38;107966;1270;74982;-93
2023/07/13 11:17:42;;;;;;;;;;;;;;;24.81;41.61;101025.48;108060;1270;65588;-92
2023/07/13 11:20:12;;;;;;;;;;;;;;;24.86;42.72;101023.18;107890;1270;72418;-92
2023/07/13 11:22:43;;;;;;;;;;;;;;;24.80;43.53;101020.66;108072;1270;58984;-91
2023/07/13 11:25:32;;;;;;;;;;;;;;;24.71;44.20;101025.98;107910;1270;124105;-90
2023/07/13 11:28:11;;;;;;;;;;;;;;;24.66;44.41;101031.31;107997;1270;74839;-91
2023/07/13 11:30:40;;;;;;;;;;;;;;;24.65;44.74;101028.47;108158;1262;123283;-91
2023/07/13 11:33:07;;;;;;;;;;;;;;;24.75;44.01;101027.46;108805;1260;72820;-91
2023/07/13 11:35:35;;;;;;;;;;;;;;;24.91;43.88;101035.60;108680;1261;124301;-90
2023/07/13 11:38:02;;;;;;;;;;;;;;;24.95;43.85;101032.42;108671;1260;59988;-91
2023/07/13 11:40:31;;;;;;;;;;;;;;;25.02;44.29;101028.61;108632;1260;73139;-92
2023/07/13 11:43:03;;;;;;;;;;;;;;;25.25;43.96;101025.23;108580;1260;124634;-92
2023/07/13 11:45:30;;;;;;;;;;;;;;;25.53;43.41;101023.61;108626;1262;71482;-90
2023/07/13 11:48:00;;;;;;;;;;;;;;;25.72;43.93;101023.16;108626;1261;123168;-89
2023/07/13 11:50:27;;;;;;;;;;;;;;;25.95;44.21;101024.42;108627;1262;59884;-89
2023/07/13 11:52:55;;;;;;;;;;;;;;;26.01;44.12;101026.89;108697;1260;74425;-92
2023/07/13 11:55:29;;;;;;;;;;;;;;;26.01;44.08;101030.30;108563;1260;123224;-92
2023/07/13 11:57:59;;;;;;;;;;;;;;;25.94;43.80;101024.96;108644;1262;72719;-88
2023/07/13 12:00:30;;;;;;;;;;;;;;;25.79;43.65;101024.55;108588;1261;124121;-88
2023/07/13 12:02:59;;;;;;;;;;;;;;;25.59;43.55;101026.65;108684;1260;59106;-87
2023/07/13 12:05:26;;;;;;;;;;;;;;;25.48;43.70;101025.23;108596;1260;75631;-87
2023/07/13 12:07:54;;;;;;;;;;;;;;;25.43;43.64;101023.45;108508;1262;124152;-89
2023/07/13 12:10:33;;;;;;;;;;;;;;;25.35;43.64;101024.01;108582;1260;71173;-89
2023/07/13 12:13:02;;;;;;;;;;;;;;;25.20;44.10;101027.16;108301;1266;125602;-89
2023/07/13 12:15:37;;;;;;;;;;;;;;;25.06;44.05;101027.77;108569;1262;59034;-88
2023/07/13 12:18:13;;;;;;;;;;;;;;;24.95;44.03;101029.39;108571;1262;74676;-88
2023/07/13 12:20:40;;;;;;;;;;;;;;;24.86;44.13;101032.71;108613;1261;67244;-88
2023/07/13 12:23:37;;;;;;;;;;;;;;;24.77;44.29;101029.55;108564;1262;71481;-88
2023/07/13 12:26:05;;;;;;;;;;;;;;;24.76;44.43;101031.75;107888;1270;123989;-88
2023/07/13 12:28:38;;;;;;;;;;;;;;;24.71;44.55;101034.03;107675;1271;61044;-88
2023/07/13 12:31:06;;;;;;;;;;;;;;;24.68;44.56;101028.58;107656;1270;124160;-89
2023/07/13 12:33:33;;;;;;;;;;;;;;;24.58;44.45;101020.94;107712;1271;67081;-88